sensor_id;sensor_type;location;lat;lon;timestamp;P1;durP1;ratioP1;P2;durP2;ratioP2
85662;SDS011;76094;55.506;37.950;2024-03-25T00:01:48;17.52;;;10.90;;
85662;SDS011;76094;55.506;37.950;2024-03-25T00:04:14;13.60;;;9.15;;
85662;SDS011;76094;55.506;37.950;2024-03-25T00:06:41;15.65;;;9.10;;
85662;SDS011;76094;55.506;37.950;2024-03-25T00:09:08;12.48;;;7.10;;
85662;SDS011;76094;55.506;37.950;2024-03-25T00:11:40;7.80;;;6.07;;
85662;SDS011;76094;55.506;37.950;2024-03-25T00:14:08;6.32;;;4.32;;
85662;SDS011;76094;55.506;37.950;2024-03-25T00:16:34;5.20;;;3.75;;
85662;SDS011;76094;55.506;37.950;2024-03-25T00:19:01;3.50;;;3.20;;
85662;SDS011;76094;55.506;37.950;2024-03-25T00:21:27;6.38;;;2.88;;
85662;SDS011;76094;55.506;37.950;2024-03-25T00:23:54;3.08;;;2.60;;
85662;SDS011;76094;55.506;37.950;2024-03-25T00:26:23;2.35;;;2.00;;
85662;SDS011;76094;55.506;37.950;2024-03-25T00:28:49;2.70;;;2.13;;
85662;SDS011;76094;55.506;37.950;2024-03-25T00:31:16;3.78;;;2.00;;
85662;SDS011;76094;55.506;37.950;2024-03-25T00:33:43;2.10;;;1.55;;
85662;SDS011;76094;55.506;37.950;2024-03-25T00:36:09;2.10;;;1.65;;
85662;SDS011;76094;55.506;37.950;2024-03-25T00:38:36;1.30;;;1.20;;
85662;SDS011;76094;55.506;37.950;2024-03-25T00:41:02;1.33;;;1.17;;
85662;SDS011;76094;55.506;37.950;2024-03-25T00:43:28;1.15;;;0.90;;
85662;SDS011;76094;55.506;37.950;2024-03-25T00:45:55;3.83;;;1.00;;
85662;SDS011;76094;55.506;37.950;2024-03-25T00:48:22;1.42;;;1.00;;
85662;SDS011;76094;55.506;37.950;2024-03-25T00:50:49;0.80;;;0.80;;
85662;SDS011;76094;55.506;37.950;2024-03-25T00:53:15;0.60;;;0.60;;
85662;SDS011;76094;55.506;37.950;2024-03-25T00:55:42;0.88;;;0.80;;
85662;SDS011;76094;55.506;37.950;2024-03-25T00:58:08;0.93;;;0.80;;
85662;SDS011;76094;55.506;37.950;2024-03-25T01:00:35;0.70;;;0.70;;
85662;SDS011;76094;55.506;37.950;2024-03-25T01:03:01;1.38;;;0.90;;
85662;SDS011;76094;55.506;37.950;2024-03-25T01:05:27;0.68;;;0.60;;
85662;SDS011;76094;55.506;37.950;2024-03-25T01:07:54;1.17;;;0.88;;
85662;SDS011;76094;55.506;37.950;2024-03-25T01:10:20;0.60;;;0.60;;
85662;SDS011;76094;55.506;37.950;2024-03-25T01:12:46;1.10;;;0.70;;
85662;SDS011;76094;55.506;37.950;2024-03-25T01:15:13;0.85;;;0.75;;
85662;SDS011;76094;55.506;37.950;2024-03-25T01:17:39;0.60;;;0.60;;
85662;SDS011;76094;55.506;37.950;2024-03-25T01:20:05;2.80;;;0.70;;
85662;SDS011;76094;55.506;37.950;2024-03-25T01:22:32;0.68;;;0.40;;
85662;SDS011;76094;55.506;37.950;2024-03-25T01:24:58;1.42;;;0.98;;
85662;SDS011;76094;55.506;37.950;2024-03-25T01:27:25;0.50;;;0.50;;
85662;SDS011;76094;55.506;37.950;2024-03-25T01:29:51;0.70;;;0.50;;
85662;SDS011;76094;55.506;37.950;2024-03-25T01:32:18;0.50;;;0.50;;
85662;SDS011;76094;55.506;37.950;2024-03-25T01:34:44;0.75;;;0.60;;
85662;SDS011;76094;55.506;37.950;2024-03-25T01:37:11;0.40;;;0.40;;
85662;SDS011;76094;55.506;37.950;2024-03-25T01:39:37;0.50;;;0.40;;
85662;SDS011;76094;55.506;37.950;2024-03-25T01:42:04;0.20;;;0.20;;
85662;SDS011;76094;55.506;37.950;2024-03-25T01:44:31;0.40;;;0.40;;
85662;SDS011;76094;55.506;37.950;2024-03-25T01:46:58;0.40;;;0.40;;
85662;SDS011;76094;55.506;37.950;2024-03-25T01:49:24;0.40;;;0.40;;
85662;SDS011;76094;55.506;37.950;2024-03-25T01:51:50;0.40;;;0.40;;
85662;SDS011;76094;55.506;37.950;2024-03-25T01:54:16;1.00;;;0.50;;
85662;SDS011;76094;55.506;37.950;2024-03-25T01:56:43;0.28;;;0.28;;
85662;SDS011;76094;55.506;37.950;2024-03-25T01:59:12;0.28;;;0.28;;
85662;SDS011;76094;55.506;37.950;2024-03-25T02:01:39;0.55;;;0.38;;
85662;SDS011;76094;55.506;37.950;2024-03-25T02:04:06;0.20;;;0.20;;
85662;SDS011;76094;55.506;37.950;2024-03-25T02:06:33;0.30;;;0.30;;
85662;SDS011;76094;55.506;37.950;2024-03-25T02:09:02;0.40;;;0.40;;
85662;SDS011;76094;55.506;37.950;2024-03-25T02:11:29;0.30;;;0.30;;
85662;SDS011;76094;55.506;37.950;2024-03-25T02:13:56;0.43;;;0.40;;
85662;SDS011;76094;55.506;37.950;2024-03-25T02:16:23;0.30;;;0.30;;
85662;SDS011;76094;55.506;37.950;2024-03-25T02:19:09;0.40;;;0.38;;
85662;SDS011;76094;55.506;37.950;2024-03-25T02:21:37;0.82;;;0.40;;
85662;SDS011;76094;55.506;37.950;2024-03-25T02:24:04;0.40;;;0.40;;
85662;SDS011;76094;55.506;37.950;2024-03-25T02:26:32;2.28;;;0.57;;
85662;SDS011;76094;55.506;37.950;2024-03-25T02:28:58;2.60;;;0.47;;
85662;SDS011;76094;55.506;37.950;2024-03-25T02:31:25;0.50;;;0.40;;
85662;SDS011;76094;55.506;37.950;2024-03-25T02:33:52;1.23;;;0.40;;
85662;SDS011;76094;55.506;37.950;2024-03-25T02:36:18;0.50;;;0.35;;
85662;SDS011;76094;55.506;37.950;2024-03-25T02:38:45;0.40;;;0.40;;
85662;SDS011;76094;55.506;37.950;2024-03-25T02:41:12;1.20;;;0.70;;
85662;SDS011;76094;55.506;37.950;2024-03-25T02:43:38;0.47;;;0.40;;
85662;SDS011;76094;55.506;37.950;2024-03-25T02:46:04;0.47;;;0.40;;
85662;SDS011;76094;55.506;37.950;2024-03-25T02:48:31;0.47;;;0.30;;
85662;SDS011;76094;55.506;37.950;2024-03-25T02:50:57;0.40;;;0.40;;
85662;SDS011;76094;55.506;37.950;2024-03-25T02:53:23;0.30;;;0.30;;
85662;SDS011;76094;55.506;37.950;2024-03-25T02:55:50;1.25;;;0.68;;
85662;SDS011;76094;55.506;37.950;2024-03-25T02:58:16;0.40;;;0.40;;
85662;SDS011;76094;55.506;37.950;2024-03-25T03:00:43;0.40;;;0.40;;
85662;SDS011;76094;55.506;37.950;2024-03-25T03:03:09;0.85;;;0.50;;
85662;SDS011;76094;55.506;37.950;2024-03-25T03:05:35;0.45;;;0.45;;
85662;SDS011;76094;55.506;37.950;2024-03-25T03:08:02;1.27;;;0.50;;
85662;SDS011;76094;55.506;37.950;2024-03-25T03:10:28;0.50;;;0.50;;
85662;SDS011;76094;55.506;37.950;2024-03-25T03:12:55;0.40;;;0.40;;
85662;SDS011;76094;55.506;37.950;2024-03-25T03:15:21;0.30;;;0.30;;
85662;SDS011;76094;55.506;37.950;2024-03-25T03:17:47;0.45;;;0.40;;
85662;SDS011;76094;55.506;37.950;2024-03-25T03:20:14;0.30;;;0.30;;
85662;SDS011;76094;55.506;37.950;2024-03-25T03:22:40;0.32;;;0.32;;
85662;SDS011;76094;55.506;37.950;2024-03-25T03:25:06;0.57;;;0.50;;
85662;SDS011;76094;55.506;37.950;2024-03-25T03:27:33;0.50;;;0.50;;
85662;SDS011;76094;55.506;37.950;2024-03-25T03:29:59;0.82;;;0.47;;
85662;SDS011;76094;55.506;37.950;2024-03-25T03:32:26;0.47;;;0.47;;
85662;SDS011;76094;55.506;37.950;2024-03-25T03:34:52;0.52;;;0.50;;
85662;SDS011;76094;55.506;37.950;2024-03-25T03:37:19;0.47;;;0.47;;
85662;SDS011;76094;55.506;37.950;2024-03-25T03:39:45;0.60;;;0.60;;
85662;SDS011;76094;55.506;37.950;2024-03-25T03:42:11;1.50;;;0.70;;
85662;SDS011;76094;55.506;37.950;2024-03-25T03:44:38;0.70;;;0.70;;
85662;SDS011;76094;55.506;37.950;2024-03-25T03:47:04;1.80;;;0.60;;
85662;SDS011;76094;55.506;37.950;2024-03-25T03:49:30;0.60;;;0.60;;
85662;SDS011;76094;55.506;37.950;2024-03-25T03:51:56;4.05;;;0.60;;
85662;SDS011;76094;55.506;37.950;2024-03-25T03:54:23;0.50;;;0.50;;
85662;SDS011;76094;55.506;37.950;2024-03-25T03:56:49;0.60;;;0.60;;
85662;SDS011;76094;55.506;37.950;2024-03-25T03:59:15;1.52;;;0.70;;
85662;SDS011;76094;55.506;37.950;2024-03-25T04:01:42;0.70;;;0.70;;
85662;SDS011;76094;55.506;37.950;2024-03-25T04:04:09;2.25;;;1.45;;
85662;SDS011;76094;55.506;37.950;2024-03-25T04:06:35;0.93;;;0.70;;
85662;SDS011;76094;55.506;37.950;2024-03-25T04:09:02;0.80;;;0.75;;
85662;SDS011;76094;55.506;37.950;2024-03-25T04:11:30;0.68;;;0.68;;
85662;SDS011;76094;55.506;37.950;2024-03-25T04:13:56;0.90;;;0.57;;
85662;SDS011;76094;55.506;37.950;2024-03-25T04:16:22;1.50;;;0.70;;
85662;SDS011;76094;55.506;37.950;2024-03-25T04:18:49;0.80;;;0.65;;
85662;SDS011;76094;55.506;37.950;2024-03-25T04:21:15;1.23;;;0.85;;
85662;SDS011;76094;55.506;37.950;2024-03-25T04:23:41;1.67;;;0.85;;
85662;SDS011;76094;55.506;37.950;2024-03-25T04:26:09;1.52;;;0.68;;
85662;SDS011;76094;55.506;37.950;2024-03-25T04:28:35;1.25;;;0.80;;
85662;SDS011;76094;55.506;37.950;2024-03-25T04:31:02;0.90;;;0.75;;
85662;SDS011;76094;55.506;37.950;2024-03-25T04:33:28;4.72;;;0.90;;
85662;SDS011;76094;55.506;37.950;2024-03-25T04:35:55;3.53;;;0.93;;
85662;SDS011;76094;55.506;37.950;2024-03-25T04:38:21;1.10;;;0.80;;
85662;SDS011;76094;55.506;37.950;2024-03-25T04:40:47;2.67;;;1.30;;
85662;SDS011;76094;55.506;37.950;2024-03-25T04:43:14;1.70;;;0.90;;
85662;SDS011;76094;55.506;37.950;2024-03-25T04:45:40;2.17;;;0.75;;
85662;SDS011;76094;55.506;37.950;2024-03-25T04:48:06;2.42;;;0.77;;
85662;SDS011;76094;55.506;37.950;2024-03-25T04:50:33;0.77;;;0.70;;
85662;SDS011;76094;55.506;37.950;2024-03-25T04:53:00;0.93;;;0.77;;
85662;SDS011;76094;55.506;37.950;2024-03-25T04:55:26;1.13;;;0.80;;
85662;SDS011;76094;55.506;37.950;2024-03-25T04:57:53;2.13;;;0.93;;
85662;SDS011;76094;55.506;37.950;2024-03-25T05:00:19;4.25;;;1.00;;
85662;SDS011;76094;55.506;37.950;2024-03-25T05:02:46;2.60;;;0.82;;
85662;SDS011;76094;55.506;37.950;2024-03-25T05:05:12;4.68;;;0.90;;
85662;SDS011;76094;55.506;37.950;2024-03-25T05:07:38;0.95;;;0.70;;
85662;SDS011;76094;55.506;37.950;2024-03-25T05:10:05;2.17;;;1.20;;
85662;SDS011;76094;55.506;37.950;2024-03-25T05:12:32;1.27;;;0.90;;
85662;SDS011;76094;55.506;37.950;2024-03-25T05:14:59;2.00;;;1.00;;
85662;SDS011;76094;55.506;37.950;2024-03-25T05:17:25;1.42;;;0.90;;
85662;SDS011;76094;55.506;37.950;2024-03-25T05:19:51;1.73;;;0.90;;
85662;SDS011;76094;55.506;37.950;2024-03-25T05:22:18;1.25;;;1.08;;
85662;SDS011;76094;55.506;37.950;2024-03-25T05:24:44;2.70;;;0.82;;
85662;SDS011;76094;55.506;37.950;2024-03-25T05:27:11;0.95;;;0.75;;
85662;SDS011;76094;55.506;37.950;2024-03-25T05:29:38;1.42;;;0.93;;
85662;SDS011;76094;55.506;37.950;2024-03-25T05:32:05;2.00;;;1.50;;
85662;SDS011;76094;55.506;37.950;2024-03-25T05:34:31;1.45;;;1.00;;
85662;SDS011;76094;55.506;37.950;2024-03-25T05:36:58;2.13;;;1.55;;
85662;SDS011;76094;55.506;37.950;2024-03-25T05:39:24;1.08;;;0.90;;
85662;SDS011;76094;55.506;37.950;2024-03-25T05:41:51;1.77;;;1.08;;
85662;SDS011;76094;55.506;37.950;2024-03-25T05:44:17;1.65;;;1.10;;
85662;SDS011;76094;55.506;37.950;2024-03-25T05:46:44;1.98;;;0.95;;
85662;SDS011;76094;55.506;37.950;2024-03-25T05:49:10;1.65;;;1.00;;
85662;SDS011;76094;55.506;37.950;2024-03-25T05:51:36;2.92;;;1.30;;
85662;SDS011;76094;55.506;37.950;2024-03-25T05:54:03;7.18;;;1.30;;
85662;SDS011;76094;55.506;37.950;2024-03-25T05:56:29;1.88;;;0.88;;
85662;SDS011;76094;55.506;37.950;2024-03-25T05:59:00;1.38;;;0.90;;
85662;SDS011;76094;55.506;37.950;2024-03-25T06:01:27;2.50;;;1.30;;
85662;SDS011;76094;55.506;37.950;2024-03-25T06:03:53;1.73;;;1.20;;
85662;SDS011;76094;55.506;37.950;2024-03-25T06:06:20;2.65;;;1.25;;
85662;SDS011;76094;55.506;37.950;2024-03-25T06:08:46;1.63;;;1.23;;
85662;SDS011;76094;55.506;37.950;2024-03-25T06:11:13;1.67;;;1.13;;
85662;SDS011;76094;55.506;37.950;2024-03-25T06:13:39;5.28;;;1.10;;
85662;SDS011;76094;55.506;37.950;2024-03-25T06:16:05;5.13;;;1.20;;
85662;SDS011;76094;55.506;37.950;2024-03-25T06:18:32;1.20;;;1.00;;
85662;SDS011;76094;55.506;37.950;2024-03-25T06:20:59;3.97;;;1.63;;
85662;SDS011;76094;55.506;37.950;2024-03-25T06:23:26;4.28;;;1.30;;
85662;SDS011;76094;55.506;37.950;2024-03-25T06:25:53;1.92;;;1.60;;
85662;SDS011;76094;55.506;37.950;2024-03-25T06:28:21;2.47;;;1.90;;
85662;SDS011;76094;55.506;37.950;2024-03-25T06:30:48;4.05;;;1.70;;
85662;SDS011;76094;55.506;37.950;2024-03-25T06:33:34;2.60;;;1.27;;
85662;SDS011;76094;55.506;37.950;2024-03-25T06:36:20;2.33;;;2.13;;
85662;SDS011;76094;55.506;37.950;2024-03-25T06:38:47;5.68;;;1.90;;
85662;SDS011;76094;55.506;37.950;2024-03-25T06:41:14;2.70;;;1.90;;
85662;SDS011;76094;55.506;37.950;2024-03-25T06:43:40;2.45;;;2.10;;
85662;SDS011;76094;55.506;37.950;2024-03-25T06:46:07;7.22;;;2.00;;
85662;SDS011;76094;55.506;37.950;2024-03-25T06:48:34;3.08;;;1.75;;
85662;SDS011;76094;55.506;37.950;2024-03-25T06:51:01;2.75;;;1.73;;
85662;SDS011;76094;55.506;37.950;2024-03-25T06:53:30;4.55;;;2.03;;
85662;SDS011;76094;55.506;37.950;2024-03-25T06:55:58;2.90;;;1.95;;
85662;SDS011;76094;55.506;37.950;2024-03-25T06:58:25;3.97;;;2.20;;
85662;SDS011;76094;55.506;37.950;2024-03-25T07:00:53;2.80;;;1.80;;
85662;SDS011;76094;55.506;37.950;2024-03-25T07:03:20;2.70;;;1.70;;
85662;SDS011;76094;55.506;37.950;2024-03-25T07:05:48;5.80;;;1.90;;
85662;SDS011;76094;55.506;37.950;2024-03-25T07:08:19;2.88;;;2.47;;
85662;SDS011;76094;55.506;37.950;2024-03-25T07:10:45;2.45;;;1.90;;
85662;SDS011;76094;55.506;37.950;2024-03-25T07:13:12;2.45;;;2.00;;
85662;SDS011;76094;55.506;37.950;2024-03-25T07:15:39;5.80;;;1.70;;
85662;SDS011;76094;55.506;37.950;2024-03-25T07:18:06;4.40;;;2.30;;
85662;SDS011;76094;55.506;37.950;2024-03-25T07:20:33;3.08;;;2.15;;
85662;SDS011;76094;55.506;37.950;2024-03-25T07:22:59;2.40;;;2.10;;
85662;SDS011;76094;55.506;37.950;2024-03-25T07:25:26;2.83;;;2.30;;
85662;SDS011;76094;55.506;37.950;2024-03-25T07:27:52;3.35;;;1.60;;
85662;SDS011;76094;55.506;37.950;2024-03-25T07:30:19;1.63;;;1.42;;
85662;SDS011;76094;55.506;37.950;2024-03-25T07:32:45;2.15;;;1.50;;
85662;SDS011;76094;55.506;37.950;2024-03-25T07:35:12;6.55;;;2.25;;
85662;SDS011;76094;55.506;37.950;2024-03-25T07:37:38;2.97;;;1.70;;
85662;SDS011;76094;55.506;37.950;2024-03-25T07:40:06;2.35;;;1.67;;
85662;SDS011;76094;55.506;37.950;2024-03-25T07:42:35;3.97;;;1.80;;
85662;SDS011;76094;55.506;37.950;2024-03-25T07:45:02;3.65;;;2.13;;
85662;SDS011;76094;55.506;37.950;2024-03-25T07:47:30;9.65;;;3.25;;
85662;SDS011;76094;55.506;37.950;2024-03-25T07:49:57;4.07;;;2.58;;
85662;SDS011;76094;55.506;37.950;2024-03-25T07:52:28;5.00;;;2.40;;
85662;SDS011;76094;55.506;37.950;2024-03-25T07:54:54;3.67;;;2.30;;
85662;SDS011;76094;55.506;37.950;2024-03-25T07:57:21;3.28;;;1.90;;
85662;SDS011;76094;55.506;37.950;2024-03-25T07:59:48;3.80;;;1.50;;
85662;SDS011;76094;55.506;37.950;2024-03-25T08:02:14;6.47;;;1.75;;
85662;SDS011;76094;55.506;37.950;2024-03-25T08:04:41;4.00;;;2.30;;
85662;SDS011;76094;55.506;37.950;2024-03-25T08:07:08;2.30;;;1.60;;
85662;SDS011;76094;55.506;37.950;2024-03-25T08:09:34;2.38;;;1.60;;
85662;SDS011;76094;55.506;37.950;2024-03-25T08:12:01;2.75;;;1.60;;
85662;SDS011;76094;55.506;37.950;2024-03-25T08:14:27;2.63;;;1.83;;
85662;SDS011;76094;55.506;37.950;2024-03-25T08:16:53;5.40;;;1.55;;
85662;SDS011;76094;55.506;37.950;2024-03-25T08:19:20;4.45;;;1.83;;
85662;SDS011;76094;55.506;37.950;2024-03-25T08:21:46;4.22;;;2.00;;
85662;SDS011;76094;55.506;37.950;2024-03-25T08:24:13;2.65;;;1.85;;
85662;SDS011;76094;55.506;37.950;2024-03-25T08:26:41;2.78;;;2.03;;
85662;SDS011;76094;55.506;37.950;2024-03-25T08:29:07;3.50;;;2.08;;
85662;SDS011;76094;55.506;37.950;2024-03-25T08:31:34;5.05;;;2.10;;
85662;SDS011;76094;55.506;37.950;2024-03-25T08:34:01;3.38;;;1.83;;
85662;SDS011;76094;55.506;37.950;2024-03-25T08:36:27;4.68;;;2.55;;
85662;SDS011;76094;55.506;37.950;2024-03-25T08:38:53;11.25;;;2.10;;
85662;SDS011;76094;55.506;37.950;2024-03-25T08:41:19;3.20;;;1.80;;
85662;SDS011;76094;55.506;37.950;2024-03-25T08:43:46;5.90;;;2.25;;
85662;SDS011;76094;55.506;37.950;2024-03-25T08:46:12;4.85;;;2.00;;
85662;SDS011;76094;55.506;37.950;2024-03-25T08:48:38;3.83;;;1.90;;
85662;SDS011;76094;55.506;37.950;2024-03-25T08:51:04;5.65;;;2.47;;
85662;SDS011;76094;55.506;37.950;2024-03-25T08:53:31;5.38;;;3.10;;
85662;SDS011;76094;55.506;37.950;2024-03-25T08:55:57;3.90;;;2.42;;
85662;SDS011;76094;55.506;37.950;2024-03-25T08:58:24;4.80;;;2.25;;
85662;SDS011;76094;55.506;37.950;2024-03-25T09:00:51;3.15;;;1.80;;
85662;SDS011;76094;55.506;37.950;2024-03-25T09:03:18;5.63;;;2.20;;
85662;SDS011;76094;55.506;37.950;2024-03-25T09:05:44;4.28;;;2.28;;
85662;SDS011;76094;55.506;37.950;2024-03-25T09:08:11;4.45;;;2.08;;
85662;SDS011;76094;55.506;37.950;2024-03-25T09:10:37;6.40;;;2.22;;
85662;SDS011;76094;55.506;37.950;2024-03-25T09:13:22;3.75;;;2.30;;
85662;SDS011;76094;55.506;37.950;2024-03-25T09:15:52;3.67;;;2.33;;
85662;SDS011;76094;55.506;37.950;2024-03-25T09:18:20;3.05;;;2.65;;
85662;SDS011;76094;55.506;37.950;2024-03-25T09:20:47;6.97;;;2.35;;
85662;SDS011;76094;55.506;37.950;2024-03-25T09:23:13;4.47;;;2.40;;
85662;SDS011;76094;55.506;37.950;2024-03-25T09:25:40;5.22;;;2.83;;
85662;SDS011;76094;55.506;37.950;2024-03-25T09:28:06;5.88;;;3.05;;
85662;SDS011;76094;55.506;37.950;2024-03-25T09:30:34;3.95;;;2.70;;
85662;SDS011;76094;55.506;37.950;2024-03-25T09:33:00;4.63;;;2.72;;
85662;SDS011;76094;55.506;37.950;2024-03-25T09:35:26;3.67;;;2.22;;
85662;SDS011;76094;55.506;37.950;2024-03-25T09:37:53;7.32;;;2.25;;
85662;SDS011;76094;55.506;37.950;2024-03-25T09:40:19;4.38;;;2.20;;
85662;SDS011;76094;55.506;37.950;2024-03-25T09:42:49;6.15;;;2.80;;
85662;SDS011;76094;55.506;37.950;2024-03-25T09:45:18;4.45;;;2.60;;
85662;SDS011;76094;55.506;37.950;2024-03-25T09:47:46;5.78;;;2.58;;
85662;SDS011;76094;55.506;37.950;2024-03-25T09:50:13;10.85;;;3.95;;
85662;SDS011;76094;55.506;37.950;2024-03-25T09:52:45;9.00;;;3.38;;
85662;SDS011;76094;55.506;37.950;2024-03-25T09:55:12;8.63;;;3.45;;
85662;SDS011;76094;55.506;37.950;2024-03-25T09:57:39;5.18;;;2.58;;
85662;SDS011;76094;55.506;37.950;2024-03-25T10:00:08;4.32;;;2.60;;
85662;SDS011;76094;55.506;37.950;2024-03-25T10:02:39;6.88;;;2.50;;
85662;SDS011;76094;55.506;37.950;2024-03-25T10:05:06;4.88;;;2.47;;
85662;SDS011;76094;55.506;37.950;2024-03-25T10:07:33;5.60;;;2.85;;
85662;SDS011;76094;55.506;37.950;2024-03-25T10:10:06;6.65;;;2.50;;
85662;SDS011;76094;55.506;37.950;2024-03-25T10:12:35;9.43;;;2.70;;
85662;SDS011;76094;55.506;37.950;2024-03-25T10:15:03;6.53;;;2.70;;
85662;SDS011;76094;55.506;37.950;2024-03-25T10:17:32;7.82;;;3.03;;
85662;SDS011;76094;55.506;37.950;2024-03-25T10:19:59;7.35;;;2.90;;
85662;SDS011;76094;55.506;37.950;2024-03-25T10:22:25;8.07;;;3.58;;
85662;SDS011;76094;55.506;37.950;2024-03-25T10:24:51;7.18;;;3.45;;
85662;SDS011;76094;55.506;37.950;2024-03-25T10:27:21;22.95;;;4.43;;
85662;SDS011;76094;55.506;37.950;2024-03-25T10:29:51;9.48;;;2.92;;
85662;SDS011;76094;55.506;37.950;2024-03-25T10:32:19;9.52;;;2.80;;
85662;SDS011;76094;55.506;37.950;2024-03-25T10:34:46;12.73;;;2.83;;
85662;SDS011;76094;55.506;37.950;2024-03-25T10:37:14;8.18;;;2.65;;
85662;SDS011;76094;55.506;37.950;2024-03-25T10:39:48;6.00;;;2.70;;
85662;SDS011;76094;55.506;37.950;2024-03-25T10:42:20;7.20;;;2.55;;
85662;SDS011;76094;55.506;37.950;2024-03-25T10:44:48;18.58;;;5.47;;
85662;SDS011;76094;55.506;37.950;2024-03-25T10:47:24;7.70;;;2.95;;
85662;SDS011;76094;55.506;37.950;2024-03-25T10:49:55;24.23;;;2.72;;
85662;SDS011;76094;55.506;37.950;2024-03-25T10:52:26;8.52;;;2.83;;
85662;SDS011;76094;55.506;37.950;2024-03-25T10:54:55;9.48;;;2.75;;
85662;SDS011;76094;55.506;37.950;2024-03-25T10:57:22;19.40;;;2.80;;
85662;SDS011;76094;55.506;37.950;2024-03-25T10:59:49;9.27;;;3.10;;
85662;SDS011;76094;55.506;37.950;2024-03-25T11:02:15;6.85;;;2.40;;
85662;SDS011;76094;55.506;37.950;2024-03-25T11:04:44;9.70;;;2.53;;
85662;SDS011;76094;55.506;37.950;2024-03-25T11:07:11;10.15;;;3.00;;
85662;SDS011;76094;55.506;37.950;2024-03-25T11:09:41;11.43;;;2.75;;
85662;SDS011;76094;55.506;37.950;2024-03-25T11:12:11;8.02;;;2.45;;
85662;SDS011;76094;55.506;37.950;2024-03-25T11:14:41;11.35;;;2.65;;
85662;SDS011;76094;55.506;37.950;2024-03-25T11:17:14;6.53;;;2.10;;
85662;SDS011;76094;55.506;37.950;2024-03-25T11:19:41;21.08;;;2.55;;
85662;SDS011;76094;55.506;37.950;2024-03-25T11:22:08;7.82;;;2.38;;
85662;SDS011;76094;55.506;37.950;2024-03-25T11:24:36;10.68;;;2.75;;
85662;SDS011;76094;55.506;37.950;2024-03-25T11:27:07;8.50;;;2.55;;
85662;SDS011;76094;55.506;37.950;2024-03-25T11:29:34;20.35;;;3.75;;
85662;SDS011;76094;55.506;37.950;2024-03-25T11:32:03;15.50;;;3.03;;
85662;SDS011;76094;55.506;37.950;2024-03-25T11:34:31;16.67;;;2.88;;
85662;SDS011;76094;55.506;37.950;2024-03-25T11:36:58;7.00;;;2.72;;
85662;SDS011;76094;55.506;37.950;2024-03-25T11:39:25;8.73;;;2.55;;
85662;SDS011;76094;55.506;37.950;2024-03-25T11:41:52;13.65;;;3.00;;
85662;SDS011;76094;55.506;37.950;2024-03-25T11:44:19;7.05;;;3.30;;
85662;SDS011;76094;55.506;37.950;2024-03-25T11:46:49;12.82;;;3.03;;
85662;SDS011;76094;55.506;37.950;2024-03-25T11:49:16;17.42;;;3.35;;
85662;SDS011;76094;55.506;37.950;2024-03-25T11:51:44;14.55;;;2.22;;
85662;SDS011;76094;55.506;37.950;2024-03-25T11:54:13;9.27;;;2.47;;
85662;SDS011;76094;55.506;37.950;2024-03-25T11:56:41;4.57;;;2.30;;
85662;SDS011;76094;55.506;37.950;2024-03-25T11:59:09;7.78;;;2.50;;
85662;SDS011;76094;55.506;37.950;2024-03-25T12:01:38;7.70;;;2.80;;
85662;SDS011;76094;55.506;37.950;2024-03-25T12:06:38;18.00;;;2.78;;
85662;SDS011;76094;55.506;37.950;2024-03-25T12:09:04;5.28;;;2.80;;
85662;SDS011;76094;55.506;37.950;2024-03-25T12:11:49;13.90;;;3.22;;
85662;SDS011;76094;55.506;37.950;2024-03-25T12:14:16;13.88;;;2.95;;
85662;SDS011;76094;55.506;37.950;2024-03-25T12:16:43;13.48;;;3.60;;
85662;SDS011;76094;55.506;37.950;2024-03-25T12:19:10;9.70;;;3.00;;
85662;SDS011;76094;55.506;37.950;2024-03-25T12:21:38;9.57;;;2.58;;
85662;SDS011;76094;55.506;37.950;2024-03-25T12:24:04;7.15;;;2.70;;
85662;SDS011;76094;55.506;37.950;2024-03-25T12:26:31;6.07;;;2.60;;
85662;SDS011;76094;55.506;37.950;2024-03-25T12:28:58;9.00;;;3.00;;
85662;SDS011;76094;55.506;37.950;2024-03-25T12:31:24;14.55;;;2.88;;
85662;SDS011;76094;55.506;37.950;2024-03-25T12:33:51;12.07;;;4.97;;
85662;SDS011;76094;55.506;37.950;2024-03-25T12:36:17;9.15;;;4.20;;
85662;SDS011;76094;55.506;37.950;2024-03-25T12:38:43;21.60;;;4.65;;
85662;SDS011;76094;55.506;37.950;2024-03-25T12:41:11;8.93;;;4.13;;
85662;SDS011;76094;55.506;37.950;2024-03-25T12:43:41;17.20;;;4.10;;
85662;SDS011;76094;55.506;37.950;2024-03-25T12:46:08;9.07;;;4.93;;
85662;SDS011;76094;55.506;37.950;2024-03-25T12:48:36;12.73;;;4.47;;
85662;SDS011;76094;55.506;37.950;2024-03-25T12:51:03;12.95;;;3.45;;
85662;SDS011;76094;55.506;37.950;2024-03-25T12:53:29;10.43;;;3.28;;
85662;SDS011;76094;55.506;37.950;2024-03-25T12:55:56;11.00;;;3.80;;
85662;SDS011;76094;55.506;37.950;2024-03-25T12:58:22;16.45;;;3.00;;
85662;SDS011;76094;55.506;37.950;2024-03-25T13:00:49;8.02;;;3.25;;
85662;SDS011;76094;55.506;37.950;2024-03-25T13:03:15;10.80;;;3.28;;
85662;SDS011;76094;55.506;37.950;2024-03-25T13:05:43;10.63;;;3.15;;
85662;SDS011;76094;55.506;37.950;2024-03-25T13:08:10;15.38;;;3.10;;
85662;SDS011;76094;55.506;37.950;2024-03-25T13:10:36;11.02;;;2.80;;
85662;SDS011;76094;55.506;37.950;2024-03-25T13:13:02;9.35;;;3.55;;
85662;SDS011;76094;55.506;37.950;2024-03-25T13:15:31;8.60;;;3.25;;
85662;SDS011;76094;55.506;37.950;2024-03-25T13:17:58;10.13;;;2.78;;
85662;SDS011;76094;55.506;37.950;2024-03-25T13:20:33;7.60;;;2.60;;
85662;SDS011;76094;55.506;37.950;2024-03-25T13:23:15;5.57;;;2.38;;
85662;SDS011;76094;55.506;37.950;2024-03-25T13:25:42;9.05;;;2.92;;
85662;SDS011;76094;55.506;37.950;2024-03-25T13:28:08;8.90;;;2.80;;
85662;SDS011;76094;55.506;37.950;2024-03-25T13:30:34;9.85;;;2.90;;
85662;SDS011;76094;55.506;37.950;2024-03-25T13:33:01;8.85;;;2.70;;
85662;SDS011;76094;55.506;37.950;2024-03-25T13:35:27;12.32;;;2.83;;
85662;SDS011;76094;55.506;37.950;2024-03-25T13:37:53;10.00;;;3.03;;
85662;SDS011;76094;55.506;37.950;2024-03-25T13:40:20;12.98;;;4.85;;
85662;SDS011;76094;55.506;37.950;2024-03-25T13:42:49;9.77;;;3.88;;
85662;SDS011;76094;55.506;37.950;2024-03-25T13:45:15;7.88;;;3.63;;
85662;SDS011;76094;55.506;37.950;2024-03-25T13:47:42;10.77;;;2.95;;
85662;SDS011;76094;55.506;37.950;2024-03-25T13:50:08;14.88;;;3.13;;
85662;SDS011;76094;55.506;37.950;2024-03-25T13:52:35;10.70;;;3.00;;
85662;SDS011;76094;55.506;37.950;2024-03-25T13:55:01;14.68;;;3.13;;
85662;SDS011;76094;55.506;37.950;2024-03-25T13:57:30;8.55;;;2.85;;
85662;SDS011;76094;55.506;37.950;2024-03-25T13:59:57;6.22;;;2.50;;
85662;SDS011;76094;55.506;37.950;2024-03-25T14:02:24;10.40;;;3.20;;
85662;SDS011;76094;55.506;37.950;2024-03-25T14:04:51;8.70;;;2.90;;
85662;SDS011;76094;55.506;37.950;2024-03-25T14:07:17;17.48;;;3.65;;
85662;SDS011;76094;55.506;37.950;2024-03-25T14:09:44;9.23;;;2.95;;
85662;SDS011;76094;55.506;37.950;2024-03-25T14:12:10;14.90;;;2.97;;
85662;SDS011;76094;55.506;37.950;2024-03-25T14:14:37;8.27;;;2.78;;
85662;SDS011;76094;55.506;37.950;2024-03-25T14:17:03;8.57;;;2.85;;
85662;SDS011;76094;55.506;37.950;2024-03-25T14:19:30;13.82;;;3.15;;
85662;SDS011;76094;55.506;37.950;2024-03-25T14:21:57;9.30;;;3.47;;
85662;SDS011;76094;55.506;37.950;2024-03-25T14:24:23;13.98;;;3.70;;
85662;SDS011;76094;55.506;37.950;2024-03-25T14:26:49;14.52;;;3.13;;
85662;SDS011;76094;55.506;37.950;2024-03-25T14:29:16;14.00;;;3.40;;
85662;SDS011;76094;55.506;37.950;2024-03-25T14:31:42;20.23;;;3.38;;
85662;SDS011;76094;55.506;37.950;2024-03-25T14:34:09;7.03;;;3.10;;
85662;SDS011;76094;55.506;37.950;2024-03-25T14:36:36;15.13;;;3.22;;